首页
METAR-TAF:

METAR-TAF

机场 :

厄斯克門機場

厄斯克門, 哈萨克斯坦

纬度: 50-02-10N, 经度: 082-29-39E, 海拔: 286米

当前天气观测

该预报发布于20分钟前的11:30 UTC
风速4节,风向西北,在西之间变化
温度 27°C
湿度 54%
气压 1006 hPa
能见度10公里或以上

METAR: UASK 231130Z 32002MPS 270V360 9999 NSC 27/17 Q1006 NOSIG RMK QFE729/0973

时间: 17:50 (11:50 UTC)

预报

该预报发布于45分钟前的11:05 UTC
预报有效从23日的 12点(UTC)到 23日的 21点(UTC)
风速6节,风向西转西北
能见度10公里或以上
散云层高于10000英尺
短暂存在
从 23日的 12点(UTC)到 23日的 18点(UTC)
风速8节,风向西转西南
散云层高于5000英尺
短暂存在
从 23日的 18点(UTC)到 23日的 21点(UTC)
风速2节,风向多变
能見度: 3100
少量云层高于600英尺
轻雾, 烟,

TAF: UASK 231105Z 2312/2321 30003MPS 9999 SCT100 TEMPO 2312/2318 24004MPS SCT050 TEMPO 2318/2321 VRB01MPS 3100 BR FU FEW006

超过4000个机场的气象观测和天气预报(METAR&TAF报告)。

可查询的气象台以黄色和红色小点在地图上表示。

将鼠标移到小点上方,可查看气象台名称。

然后点击查看天气观测和预报。

如需切换地图:点击带黑十字的绿色按钮放大地图;点击带横线的绿色按钮缩小地图;或者点击绿色箭头查看邻近地区的地图。


METAR-TAF: